Xekmatt — OR2473 — position and weather

sailwx.info

Track history (hours):
 
Tides and Currents Weather Stations Pressure Air Temp Water Temp Dewpoint Dewpoint Depression Visibility Wind Speed Wind Dir Waves Ship Positions

Xekmatt

Last reported at 2017-Apr-25 13:34 UTC. Time now 2017-May-30 07:24 UTC.
Position N 38°42' W 009°10'.
Warning: this ship's position is 34 days out of date.

Length 14 m.

Type: Sailing vessel. MMSI: 205247310.

Date/timePositionNaut miles runAvg speedWind from/ knotsBaromVisibWave heightAir tempDewpointWater temp
2017-Apr-25 13:34N 38°42' W 009°10'1 8.4
2017-Apr-25 13:27N 38°42' W 009°11'4 8.9
2017-Apr-25 12:58N 38°41' W 009°17'3 5.6
2017-Apr-25 12:24N 38°38' W 009°18'3 8.3
2017-Apr-25 12:00N 38°35' W 009°17'4 6.0
2017-Apr-25 11:17N 38°31' W 009°15'2 4.2
2017-Apr-25 10:42N 38°29' W 009°14'  
2017-Apr-22 14:50N 38°25' W 009°14'4 8.2
2017-Apr-22 14:23N 38°28' W 009°16'10 8.3
2017-Apr-22 13:13N 38°36' W 009°22'2 6.7
2017-Apr-22 12:58N 38°38' W 009°23'3 5.9
2017-Apr-22 12:29N 38°38' W 009°20'2 3.7
2017-Apr-22 11:59N 38°40' W 009°19'0 0.2
2017-Apr-22 11:30N 38°40' W 009°18'0 0.4
2017-Apr-22 10:47N 38°40' W 009°18'0 1.2
2017-Apr-22 10:27N 38°41' W 009°19'1 2.2
2017-Apr-22 09:48N 38°41' W 009°17'  
Track history (hours):
 
Tides and Currents Weather Stations Pressure Air Temp Water Temp Dewpoint Dewpoint Depression Visibility Wind Speed Wind Dir Waves Ship Positions

Xekmatt

Last reported at 2017-Apr-25 13:34 UTC. Time now 2017-May-30 07:24 UTC.
Position N 38°42' W 009°10'.
Warning: this ship's position is 34 days out of date.

Length 14 m.

Type: Sailing vessel. MMSI: 205247310.

Date/timePositionNaut miles runAvg speedWind from/ knotsBaromVisibWave heightAir tempDewpointWater temp
2017-Apr-25 13:34N 38°42' W 009°10'1 8.4
2017-Apr-25 13:27N 38°42' W 009°11'4 8.9
2017-Apr-25 12:58N 38°41' W 009°17'3 5.6
2017-Apr-25 12:24N 38°38' W 009°18'3 8.3
2017-Apr-25 12:00N 38°35' W 009°17'4 6.0
2017-Apr-25 11:17N 38°31' W 009°15'2 4.2
2017-Apr-25 10:42N 38°29' W 009°14'  
2017-Apr-22 14:50N 38°25' W 009°14'4 8.2
2017-Apr-22 14:23N 38°28' W 009°16'10 8.3
2017-Apr-22 13:13N 38°36' W 009°22'2 6.7
2017-Apr-22 12:58N 38°38' W 009°23'3 5.9
2017-Apr-22 12:29N 38°38' W 009°20'2 3.7
2017-Apr-22 11:59N 38°40' W 009°19'0 0.2
2017-Apr-22 11:30N 38°40' W 009°18'0 0.4
2017-Apr-22 10:47N 38°40' W 009°18'0 1.2
2017-Apr-22 10:27N 38°41' W 009°19'1 2.2
2017-Apr-22 09:48N 38°41' W 009°17'  

Dump ship's entire track history